Bo Sabalos, Puerto Rico
Current Conditions -  °F | °C
As of 6:50 PM on Monday 20 Oct 2014 (Local Time) from TJBQ Reporting Station
Scattered Clouds Scattered Clouds  
Wind Chill: 81°   Ceiling: Unl
Heat Index: 85°   Visibility: 10mi
Dew Point: 73°   Wind: 9mph
Humidity: 79%   Direction: 80°E
Pressure: 29.94"   Gusts: NA
Location:  18.203°N, 67.14°W
Report Text: TJBQ 202250Z 08008KT 10SM SCT022 SCT027 SCT035 27/23 A2994 RMK LTG DSNT SW ---RWY08 ATIS P
Loading
Personal Weather Stations






























Interactive Weather Map
Tropical Storm Tracking
New forecast layout! Learn more

10-Day Weather Forecast

Advertisements
Track Severe Weather on mobile